Mc Entire JNGB Airport Eastover US
ICAO: KMMT
IATA: MMT
Category: Medium
Scheduled Services: No

Elevation: 254 ft
TransAlt. 18000 ft.

Airport Communications:
SHAW APP/DEP:125.4
CTAF:132.4
GND:127.625
ARNG OPS PTD:41.3
ANG OPS PTD:125.12
PMSV METRO:34.25
PTD:29.83
TWR:132.4

KMMT Zoom In..

Runways:

(A) RW 05 length 2033 ft width 90 ft
---- / hdg 49

(B) RW 14 length 9010 ft width 150 ft
---- / hdg 139

(C) RW 23 length 2033 ft width 90 ft
---- / hdg 229

(D) RW 32 length 9010 ft width 150 ft
ILS 111.10 / hdg 319

Location; KMMT
Day. 19 / Time. 19.56 Zulu
* Altimeter: 29.99
* Temperature: 29° c. 84.2°f.
* Wind from: 130° Speed 03 kn.
Dewpoint: 23° c.
Visibility: 10 Statute Miles.
Clouds: Few 2000 ft.
Clouds: Scattered 4000 ft.
Clouds: Broken 15000 ft.
Clouds: Broken 25000 ft.

KMMT 191956Z 13003KT 10SM FEW020 SCT040 BKN150 BKN250 29/23 A2999 RMK AO2A SLP156 T02880232 $


Wind From 130°
Speed 03 kn.

 
 
jpsmedia.com for Web Design worldairports.se 2018   terms of use